createdAt,value
2022-10-28T00:01:03.879Z,12.61
2022-10-28T00:03:33.896Z,12.60
2022-10-28T00:06:05.834Z,12.60
2022-10-28T00:08:33.976Z,12.66
2022-10-28T00:11:07.390Z,12.67
2022-10-28T00:13:36.229Z,12.67
2022-10-28T00:16:10.146Z,12.67
2022-10-28T00:18:40.549Z,12.71
2022-10-28T00:21:13.839Z,12.72
2022-10-28T00:23:42.492Z,12.72
2022-10-28T00:26:13.996Z,12.73
2022-10-28T00:28:42.913Z,12.73
2022-10-28T00:31:12.389Z,12.74
2022-10-28T00:33:41.913Z,12.72
2022-10-28T00:36:15.528Z,12.71
2022-10-28T00:38:44.968Z,12.72
2022-10-28T00:41:15.841Z,12.71
2022-10-28T00:43:45.426Z,12.65
2022-10-28T00:46:21.715Z,12.60
2022-10-28T00:48:55.697Z,12.58
2022-10-28T00:51:25.529Z,12.54
2022-10-28T00:53:56.013Z,12.52
2022-10-28T00:58:57.739Z,12.48
2022-10-28T01:01:25.792Z,12.44
2022-10-28T01:03:56.942Z,12.36
2022-10-28T01:06:27.478Z,12.29
2022-10-28T01:08:59.055Z,12.18
2022-10-28T01:11:46.820Z,12.14
2022-10-28T01:14:31.532Z,12.08
2022-10-28T01:17:14.331Z,12.05
2022-10-28T01:20:15.721Z,11.98
2022-10-28T01:22:51.747Z,11.91
2022-10-28T01:25:40.647Z,11.92
2022-10-28T01:28:17.897Z,11.97
2022-10-28T01:31:13.522Z,11.98
2022-10-28T01:33:48.294Z,11.89
2022-10-28T01:36:21.206Z,11.84
2022-10-28T01:38:55.450Z,11.74
2022-10-28T01:41:31.091Z,11.65
2022-10-28T01:44:06.617Z,11.59
2022-10-28T01:46:40.322Z,11.57
2022-10-28T01:49:13.413Z,11.54
2022-10-28T01:51:45.841Z,11.53
2022-10-28T01:54:18.747Z,11.47
2022-10-28T01:56:49.159Z,11.41
2022-10-28T01:59:21.112Z,11.39
2022-10-28T02:01:50.568Z,11.42
2022-10-28T02:04:18.629Z,11.45
2022-10-28T02:06:51.665Z,11.47
2022-10-28T02:09:29.360Z,11.46
2022-10-28T02:12:21.274Z,11.48
2022-10-28T02:15:20.662Z,11.49
2022-10-28T02:18:13.583Z,11.49
2022-10-28T02:20:50.622Z,11.49
2022-10-28T02:23:23.643Z,11.45
2022-10-28T02:25:57.521Z,11.42
2022-10-28T02:28:34.008Z,11.39
2022-10-28T02:31:08.465Z,11.35
2022-10-28T02:33:40.528Z,11.33
2022-10-28T02:36:12.200Z,11.33
2022-10-28T02:38:43.719Z,11.32
2022-10-28T02:41:17.294Z,11.30
2022-10-28T02:43:46.956Z,11.27
2022-10-28T02:46:17.662Z,11.25
2022-10-28T02:48:50.627Z,11.13
2022-10-28T02:51:21.401Z,11.02
2022-10-28T02:54:00.080Z,10.97
2022-10-28T02:56:30.595Z,10.92
2022-10-28T02:58:58.650Z,10.83
2022-10-28T03:01:26.820Z,10.77
2022-10-28T03:03:56.293Z,10.72
2022-10-28T03:08:57.220Z,10.55
2022-10-28T03:11:25.319Z,10.53
2022-10-28T03:13:53.297Z,10.55
2022-10-28T03:16:21.236Z,10.53
2022-10-28T03:18:49.351Z,10.53
2022-10-28T03:21:18.717Z,10.59
2022-10-28T03:23:46.669Z,10.64
2022-10-28T03:26:14.617Z,10.65
2022-10-28T03:28:42.533Z,10.69
2022-10-28T03:31:10.503Z,10.70
2022-10-28T03:33:38.478Z,10.69
2022-10-28T03:36:06.932Z,10.67
2022-10-28T03:38:36.264Z,10.65
2022-10-28T03:41:04.272Z,10.55
2022-10-28T03:43:32.216Z,10.49
2022-10-28T03:46:00.272Z,10.52
2022-10-28T03:48:28.243Z,10.55
2022-10-28T03:50:56.689Z,10.63
2022-10-28T03:53:27.588Z,10.68
2022-10-28T03:56:01.691Z,10.75
2022-10-28T03:58:30.152Z,10.81
2022-10-28T04:00:58.363Z,10.87
2022-10-28T04:03:26.999Z,10.92
2022-10-28T04:05:55.597Z,10.95
2022-10-28T04:08:23.725Z,10.94
2022-10-28T04:10:51.679Z,10.95
2022-10-28T04:13:21.017Z,10.96
2022-10-28T04:15:49.047Z,10.95
2022-10-28T04:18:16.991Z,10.99
2022-10-28T04:20:46.714Z,11.04
2022-10-28T04:23:17.074Z,11.08
2022-10-28T04:25:45.203Z,11.07
2022-10-28T04:28:13.166Z,11.15
2022-10-28T04:30:42.429Z,11.18
2022-10-28T04:33:13.219Z,11.20
2022-10-28T04:35:43.062Z,11.21
2022-10-28T04:38:11.314Z,11.30
2022-10-28T04:40:39.283Z,11.33
2022-10-28T04:43:09.794Z,11.38
2022-10-28T04:45:39.035Z,11.44
2022-10-28T04:48:09.793Z,11.53
2022-10-28T04:50:37.746Z,11.69
2022-10-28T04:53:05.763Z,11.75
2022-10-28T04:55:33.700Z,11.82
2022-10-28T04:58:02.329Z,11.92
2022-10-28T05:00:30.841Z,11.98
2022-10-28T05:03:02.479Z,11.98
2022-10-28T05:05:32.015Z,12.02
2022-10-28T05:08:00.033Z,12.02
2022-10-28T05:10:28.004Z,11.99
2022-10-28T05:12:55.993Z,12.01
2022-10-28T05:15:24.425Z,11.99
2022-10-28T05:17:52.583Z,11.99
2022-10-28T05:20:21.869Z,11.99
2022-10-28T05:22:53.771Z,11.97
2022-10-28T05:25:22.634Z,11.97
2022-10-28T05:27:50.753Z,11.92
2022-10-28T05:30:19.397Z,11.87
2022-10-28T05:32:49.258Z,11.81
2022-10-28T05:35:19.593Z,11.71
2022-10-28T05:37:47.564Z,11.63
2022-10-28T05:40:17.101Z,11.52
2022-10-28T05:42:45.058Z,11.51
2022-10-28T05:45:14.196Z,11.45
2022-10-28T05:47:45.024Z,11.42
2022-10-28T05:50:13.648Z,11.36
2022-10-28T05:52:45.889Z,11.28
2022-10-28T05:55:13.864Z,11.20
2022-10-28T05:57:43.262Z,11.14
2022-10-28T06:00:12.836Z,11.09
2022-10-28T06:02:41.096Z,11.08
2022-10-28T06:05:10.150Z,11.06
2022-10-28T06:07:38.860Z,11.07
2022-10-28T06:10:08.876Z,11.04
2022-10-28T06:12:35.402Z,10.99
2022-10-28T06:15:05.638Z,10.94
2022-10-28T06:17:33.604Z,10.93
2022-10-28T06:20:01.601Z,10.88
2022-10-28T06:22:29.620Z,10.84
2022-10-28T06:24:57.569Z,10.82
2022-10-28T06:27:25.649Z,10.82
2022-10-28T06:29:53.658Z,10.88
2022-10-28T06:32:23.130Z,10.90
2022-10-28T06:34:51.140Z,10.91
2022-10-28T06:37:19.437Z,11.00
2022-10-28T06:39:49.771Z,11.02
2022-10-28T06:42:17.968Z,11.11
2022-10-28T06:44:45.951Z,11.13
2022-10-28T06:47:15.485Z,11.13
2022-10-28T06:49:44.835Z,11.20
2022-10-28T06:52:12.853Z,11.14
2022-10-28T06:54:40.855Z,11.27
2022-10-28T06:57:08.875Z,11.33
2022-10-28T06:59:37.072Z,11.35
2022-10-28T07:02:05.427Z,11.34
2022-10-28T07:04:34.578Z,11.35
2022-10-28T07:07:03.876Z,11.43
2022-10-28T07:09:31.882Z,11.49
2022-10-28T07:12:04.787Z,11.53
2022-10-28T07:14:34.720Z,11.56
2022-10-28T07:17:02.965Z,11.59
2022-10-28T07:19:30.932Z,11.61
2022-10-28T07:21:58.981Z,11.63
2022-10-28T07:27:01.231Z,11.72
2022-10-28T07:29:29.192Z,11.76
2022-10-28T07:31:57.212Z,11.82
2022-10-28T07:34:27.236Z,11.89
2022-10-28T07:36:56.618Z,11.85
2022-10-28T07:39:25.319Z,12.05
2022-10-28T07:41:54.743Z,12.15
2022-10-28T07:44:23.557Z,12.22
2022-10-28T07:46:54.319Z,12.26
2022-10-28T07:49:25.292Z,12.30
2022-10-28T07:51:53.268Z,12.37
2022-10-28T07:54:21.385Z,12.42
2022-10-28T07:56:49.449Z,12.48
2022-10-28T07:59:25.670Z,12.55
2022-10-28T08:01:55.199Z,12.65
2022-10-28T08:04:23.193Z,12.75
2022-10-28T08:06:51.233Z,12.81
2022-10-28T08:09:19.680Z,12.85
2022-10-28T08:11:47.637Z,12.92
2022-10-28T08:14:15.800Z,13.01
2022-10-28T08:16:46.885Z,13.08
2022-10-28T08:19:15.067Z,13.19
2022-10-28T08:21:43.016Z,13.31
2022-10-28T08:24:11.019Z,13.37
2022-10-28T08:26:38.980Z,13.42
2022-10-28T08:29:08.050Z,13.49
2022-10-28T08:31:36.023Z,13.57
2022-10-28T08:34:05.963Z,13.61
2022-10-28T08:36:34.920Z,13.70
2022-10-28T08:39:03.043Z,13.63
2022-10-28T08:41:37.030Z,13.81
2022-10-28T08:44:35.749Z,13.88
2022-10-28T08:47:17.132Z,14.00
2022-10-28T08:49:49.622Z,14.03
2022-10-28T08:52:27.243Z,14.11
2022-10-28T08:54:58.763Z,14.18
2022-10-28T08:57:35.903Z,14.25
2022-10-28T09:00:07.514Z,14.34
2022-10-28T09:02:50.139Z,14.45
2022-10-28T09:05:23.384Z,14.52
2022-10-28T09:07:52.305Z,14.63
2022-10-28T09:10:35.968Z,14.76
2022-10-28T09:13:12.904Z,14.79
2022-10-28T09:15:49.370Z,14.83
2022-10-28T09:18:20.087Z,14.92
2022-10-28T09:20:54.194Z,15.01
2022-10-28T09:23:31.767Z,15.07
2022-10-28T09:26:10.861Z,15.23
2022-10-28T09:28:50.221Z,15.32
2022-10-28T09:31:27.375Z,15.39
2022-10-28T09:34:05.363Z,15.47
2022-10-28T09:36:38.666Z,15.68
2022-10-28T09:39:08.404Z,15.74
2022-10-28T09:41:40.391Z,15.84
2022-10-28T09:44:16.152Z,15.89
2022-10-28T09:46:47.458Z,15.96
2022-10-28T09:49:21.042Z,16.07
2022-10-28T09:51:54.953Z,16.18
2022-10-28T09:54:29.972Z,16.32
2022-10-28T09:56:58.021Z,16.35
2022-10-28T09:59:26.019Z,16.47
2022-10-28T10:01:54.172Z,16.47
2022-10-28T10:04:24.717Z,16.47
2022-10-28T10:06:57.686Z,16.57
2022-10-28T10:09:28.351Z,16.55
2022-10-28T10:12:00.825Z,16.70
2022-10-28T10:14:35.312Z,16.77
2022-10-28T10:17:07.484Z,16.77
2022-10-28T10:20:00.556Z,16.94
2022-10-28T10:22:34.754Z,17.16
2022-10-28T10:25:03.187Z,17.29
2022-10-28T10:27:32.344Z,17.39
2022-10-28T10:30:00.465Z,17.44
2022-10-28T10:32:31.600Z,17.43
2022-10-28T10:35:04.132Z,17.57
2022-10-28T10:37:36.112Z,17.71
2022-10-28T10:40:12.638Z,17.83
2022-10-28T10:42:51.616Z,17.82
2022-10-28T10:45:29.023Z,17.94
2022-10-28T10:48:12.160Z,17.95
2022-10-28T10:50:40.830Z,18.05
2022-10-28T10:53:20.194Z,18.02
2022-10-28T10:55:52.444Z,18.21
2022-10-28T10:58:23.551Z,18.20
2022-10-28T11:00:53.938Z,18.29
2022-10-28T11:03:26.734Z,18.25
2022-10-28T11:06:18.234Z,18.33
2022-10-28T11:08:46.276Z,18.43
2022-10-28T11:11:15.953Z,18.44
2022-10-28T11:13:46.190Z,18.50
2022-10-28T11:16:22.331Z,18.55
2022-10-28T11:18:52.593Z,18.54
2022-10-28T11:21:42.909Z,18.55
2022-10-28T11:24:30.710Z,18.56
2022-10-28T11:27:10.106Z,18.73
2022-10-28T11:29:38.346Z,18.83
2022-10-28T11:32:24.329Z,18.88
2022-10-28T11:35:07.187Z,19.02
2022-10-28T11:37:49.197Z,19.06
2022-10-28T11:40:30.815Z,19.13
2022-10-28T11:43:16.060Z,19.18
2022-10-28T11:45:51.194Z,19.27
2022-10-28T11:48:28.390Z,19.30
2022-10-28T11:51:07.965Z,19.35
2022-10-28T11:54:10.356Z,19.41
2022-10-28T11:56:43.084Z,19.46
2022-10-28T11:59:40.948Z,19.33
2022-10-28T12:02:25.078Z,19.44
2022-10-28T12:05:04.306Z,19.44
2022-10-28T12:07:56.255Z,19.48
2022-10-28T12:10:49.638Z,19.55
2022-10-28T12:13:29.920Z,19.60
2022-10-28T12:16:05.716Z,19.55
2022-10-28T12:18:37.819Z,19.55
2022-10-28T12:21:16.155Z,19.64
2022-10-28T12:23:45.994Z,19.65
2022-10-28T12:26:16.867Z,19.68
2022-10-28T12:28:50.552Z,19.64
2022-10-28T12:31:23.063Z,19.66
2022-10-28T12:33:54.157Z,19.65
2022-10-28T12:36:28.812Z,19.65
2022-10-28T12:39:02.486Z,19.63
2022-10-28T12:41:46.824Z,19.60
2022-10-28T12:44:20.136Z,19.55
2022-10-28T12:46:57.152Z,19.58
2022-10-28T12:49:34.948Z,19.64
2022-10-28T12:52:13.759Z,19.60
2022-10-28T12:54:53.728Z,19.58
2022-10-28T12:57:24.381Z,19.61
2022-10-28T12:59:59.815Z,19.58
2022-10-28T13:02:39.484Z,19.58
2022-10-28T13:05:08.219Z,19.57
2022-10-28T13:07:56.202Z,19.61
2022-10-28T13:10:36.996Z,19.65
2022-10-28T13:13:27.468Z,19.63
2022-10-28T13:16:36.780Z,19.69
2022-10-28T13:19:23.236Z,19.72
2022-10-28T13:22:11.525Z,19.78
2022-10-28T13:24:50.972Z,19.81
2022-10-28T13:27:20.814Z,19.87
2022-10-28T13:29:52.596Z,19.82
2022-10-28T13:32:38.281Z,19.89
2022-10-28T13:35:16.349Z,19.89
2022-10-28T13:37:48.535Z,19.89
2022-10-28T13:40:44.616Z,19.94
2022-10-28T13:43:20.844Z,19.94
2022-10-28T13:45:51.401Z,19.91
2022-10-28T13:48:49.207Z,19.84
2022-10-28T13:51:48.209Z,19.82
2022-10-28T13:54:27.251Z,19.74
2022-10-28T13:57:02.769Z,19.73
2022-10-28T13:59:39.799Z,19.69
2022-10-28T14:02:40.248Z,19.64
2022-10-28T14:05:11.954Z,19.61
2022-10-28T14:07:52.813Z,19.54
2022-10-28T14:10:28.346Z,19.50
2022-10-28T14:12:58.726Z,19.44
2022-10-28T14:15:30.338Z,19.34
2022-10-28T14:18:10.303Z,19.23
2022-10-28T14:20:59.005Z,19.15
2022-10-28T14:24:08.074Z,19.01
2022-10-28T14:27:05.775Z,18.87
2022-10-28T14:29:44.971Z,18.75
2022-10-28T14:32:41.138Z,18.67
2022-10-28T14:35:26.671Z,18.58
2022-10-28T14:38:26.964Z,18.53
2022-10-28T14:41:06.519Z,18.54
2022-10-28T14:43:59.434Z,18.57
2022-10-28T14:46:41.609Z,18.56
2022-10-28T14:49:19.605Z,18.52
2022-10-28T14:51:49.604Z,18.53
2022-10-28T14:54:24.239Z,18.51
2022-10-28T14:56:56.074Z,18.47
2022-10-28T14:59:28.373Z,18.46
2022-10-28T15:02:11.763Z,18.43
2022-10-28T15:04:41.594Z,18.45
2022-10-28T15:07:14.656Z,18.44
2022-10-28T15:09:47.399Z,18.39
2022-10-28T15:12:18.606Z,18.33
2022-10-28T15:14:48.561Z,18.26
2022-10-28T15:17:18.836Z,18.21
2022-10-28T15:19:48.427Z,18.14
2022-10-28T15:22:20.276Z,18.03
2022-10-28T15:24:57.922Z,17.94
2022-10-28T15:27:27.690Z,17.81
2022-10-28T15:29:56.639Z,17.69
2022-10-28T15:32:33.133Z,17.50
2022-10-28T15:35:21.386Z,17.36
2022-10-28T15:37:49.403Z,17.17
2022-10-28T15:40:27.719Z,17.02
2022-10-28T15:43:00.703Z,16.96
2022-10-28T15:45:30.459Z,16.90
2022-10-28T15:47:59.805Z,16.90
2022-10-28T15:50:31.216Z,16.86
2022-10-28T15:53:21.779Z,16.78
2022-10-28T15:56:09.494Z,16.72
2022-10-28T15:58:40.403Z,16.70
2022-10-28T16:01:11.473Z,16.68
2022-10-28T16:03:44.661Z,16.63
2022-10-28T16:06:24.951Z,16.52
2022-10-28T16:09:02.606Z,16.41
2022-10-28T16:11:35.722Z,16.29
2022-10-28T16:14:08.816Z,16.18
2022-10-28T16:16:37.760Z,16.10
2022-10-28T16:19:10.847Z,16.05
2022-10-28T16:21:39.814Z,15.96
2022-10-28T16:24:10.332Z,15.91
2022-10-28T16:26:39.755Z,15.83
2022-10-28T16:29:07.750Z,15.74
2022-10-28T16:31:36.061Z,15.63
2022-10-28T16:34:04.170Z,15.61
2022-10-28T16:36:32.383Z,15.60
2022-10-28T16:39:00.354Z,15.72
2022-10-28T16:41:28.380Z,15.81
2022-10-28T16:43:57.971Z,15.94
2022-10-28T16:46:26.005Z,16.00
2022-10-28T16:48:54.271Z,16.03
2022-10-28T16:51:22.268Z,16.09
2022-10-28T16:53:50.844Z,16.12
2022-10-28T16:56:18.921Z,16.19
2022-10-28T16:58:46.946Z,16.26
2022-10-28T17:01:20.998Z,16.22
2022-10-28T17:03:49.455Z,16.21
2022-10-28T17:06:17.502Z,16.25
2022-10-28T17:11:33.448Z,16.32
2022-10-28T17:14:01.471Z,16.35
2022-10-28T17:16:30.723Z,16.37
2022-10-28T17:18:58.734Z,16.40
2022-10-28T17:21:26.725Z,16.44
2022-10-28T17:23:54.685Z,16.44
2022-10-28T17:26:22.669Z,16.42
2022-10-28T17:28:52.123Z,16.41
2022-10-28T17:31:23.946Z,16.39
2022-10-28T17:33:55.804Z,16.41
2022-10-28T17:36:24.235Z,16.51
2022-10-28T17:38:52.223Z,16.57
2022-10-28T17:41:20.456Z,16.59
2022-10-28T17:43:48.497Z,16.63
2022-10-28T17:46:16.431Z,16.62
2022-10-28T17:48:44.387Z,16.75
2022-10-28T17:51:14.272Z,16.78
2022-10-28T17:53:42.219Z,16.84
2022-10-28T17:56:10.391Z,16.85
2022-10-28T17:58:38.399Z,16.86
2022-10-28T18:01:09.249Z,16.95
2022-10-28T18:03:39.005Z,16.99
2022-10-28T18:06:09.075Z,17.04
2022-10-28T18:08:40.073Z,17.08
2022-10-28T18:11:09.488Z,17.15
2022-10-28T18:13:39.712Z,17.12
2022-10-28T18:16:09.394Z,17.22
2022-10-28T18:18:42.042Z,17.17
2022-10-28T18:21:11.642Z,17.27
2022-10-28T18:23:41.891Z,17.33
2022-10-28T18:26:12.462Z,17.33
2022-10-28T18:28:41.751Z,17.36
2022-10-28T18:31:12.475Z,17.36
2022-10-28T18:33:41.076Z,17.39
2022-10-28T18:36:12.290Z,17.34
2022-10-28T18:38:41.897Z,17.32
2022-10-28T18:41:12.079Z,17.39
2022-10-28T18:43:40.260Z,17.43
2022-10-28T18:46:08.788Z,17.47
2022-10-28T18:48:37.152Z,17.43
2022-10-28T18:51:07.878Z,17.39
2022-10-28T18:53:36.682Z,17.37
2022-10-28T18:56:07.200Z,17.32
2022-10-28T18:58:35.312Z,17.28
2022-10-28T19:01:08.592Z,17.36
2022-10-28T19:03:37.441Z,17.30
2022-10-28T19:06:09.027Z,17.21
2022-10-28T19:08:37.027Z,17.18
2022-10-28T19:11:07.426Z,17.13
2022-10-28T19:13:36.768Z,17.15
2022-10-28T19:16:05.512Z,17.12
2022-10-28T19:18:35.514Z,17.11
2022-10-28T19:21:04.297Z,17.09
2022-10-28T19:23:32.717Z,17.06
2022-10-28T19:26:01.690Z,17.04
2022-10-28T19:28:31.419Z,17.02
2022-10-28T19:31:04.153Z,16.98
2022-10-28T19:33:32.775Z,16.96
2022-10-28T19:36:05.292Z,16.95
2022-10-28T19:38:34.313Z,17.02
2022-10-28T19:41:03.740Z,17.06
2022-10-28T19:43:33.281Z,17.05
2022-10-28T19:46:10.929Z,17.07
2022-10-28T19:48:40.368Z,17.01
2022-10-28T19:51:09.333Z,17.02
2022-10-28T19:53:37.340Z,17.04
2022-10-28T19:56:05.796Z,16.96
2022-10-28T19:58:35.251Z,17.00
2022-10-28T20:01:04.846Z,17.00
2022-10-28T20:03:34.753Z,16.96
2022-10-28T20:06:06.272Z,16.96
2022-10-28T20:08:35.737Z,17.00
2022-10-28T20:11:06.832Z,17.02
2022-10-28T20:13:37.167Z,17.00
2022-10-28T20:16:07.514Z,17.03
2022-10-28T20:18:35.849Z,17.05
2022-10-28T20:21:06.234Z,16.97
2022-10-28T20:23:35.769Z,16.96
2022-10-28T20:26:06.905Z,16.93
2022-10-28T20:28:36.877Z,16.93
2022-10-28T20:31:08.291Z,16.91
2022-10-28T20:33:37.663Z,16.86
2022-10-28T20:36:06.957Z,16.86
2022-10-28T20:38:35.063Z,16.87
2022-10-28T20:41:03.099Z,16.84
2022-10-28T20:43:31.081Z,16.85
2022-10-28T20:46:02.638Z,16.87
2022-10-28T20:48:31.713Z,16.83
2022-10-28T20:51:01.556Z,16.83
2022-10-28T20:53:33.887Z,16.79
2022-10-28T20:56:02.541Z,16.80
2022-10-28T20:58:32.462Z,16.76
2022-10-28T21:01:05.291Z,16.76
2022-10-28T21:03:34.028Z,16.73
2022-10-28T21:06:03.524Z,16.69
2022-10-28T21:08:31.852Z,16.64
2022-10-28T21:11:02.426Z,16.65
2022-10-28T21:13:30.420Z,16.67
2022-10-28T21:15:58.538Z,16.65
2022-10-28T21:18:27.884Z,16.57
2022-10-28T21:20:57.280Z,16.49
2022-10-28T21:23:25.807Z,16.46
2022-10-28T21:25:54.516Z,16.45
2022-10-28T21:28:22.636Z,16.29
2022-10-28T21:30:50.620Z,16.32
2022-10-28T21:33:18.930Z,16.37
2022-10-28T21:35:55.799Z,16.32
2022-10-28T21:38:23.784Z,16.24
2022-10-28T21:40:59.744Z,16.27
2022-10-28T21:43:29.264Z,16.23
2022-10-28T21:45:57.309Z,16.25
2022-10-28T21:48:25.699Z,16.20
2022-10-28T21:50:56.819Z,16.10
2022-10-28T21:53:25.523Z,16.15
2022-10-28T21:55:55.639Z,16.14
2022-10-28T21:58:23.679Z,16.10
2022-10-28T22:00:51.599Z,16.05
2022-10-28T22:03:19.659Z,16.00
2022-10-28T22:05:51.112Z,15.80
2022-10-28T22:08:20.503Z,15.95
2022-10-28T22:10:48.509Z,15.85
2022-10-28T22:13:16.444Z,15.80
2022-10-28T22:15:44.421Z,15.74
2022-10-28T22:18:12.359Z,15.73
2022-10-28T22:20:40.389Z,15.65
2022-10-28T22:23:08.360Z,15.67
2022-10-28T22:25:37.702Z,15.61
2022-10-28T22:28:06.029Z,15.52
2022-10-28T22:30:33.983Z,15.53
2022-10-28T22:33:01.916Z,15.46
2022-10-28T22:35:29.966Z,15.44
2022-10-28T22:37:58.019Z,15.36
2022-10-28T22:40:26.031Z,15.35
2022-10-28T22:42:55.304Z,15.28
2022-10-28T22:45:23.292Z,15.26
2022-10-28T22:47:51.876Z,15.23
2022-10-28T22:50:20.033Z,15.21
2022-10-28T22:52:48.047Z,15.20
2022-10-28T22:55:16.006Z,15.13
2022-10-28T22:57:45.231Z,15.10
2022-10-28T23:00:15.440Z,15.11
2022-10-28T23:02:43.576Z,15.06
2022-10-28T23:05:11.622Z,14.98
2022-10-28T23:07:39.589Z,14.93
2022-10-28T23:10:08.284Z,14.92
2022-10-28T23:12:36.246Z,14.89
2022-10-28T23:15:04.619Z,14.79
2022-10-28T23:17:33.900Z,14.74
2022-10-28T23:20:01.868Z,14.76
2022-10-28T23:22:30.225Z,14.69
2022-10-28T23:24:58.208Z,14.68
2022-10-28T23:27:26.140Z,14.61
2022-10-28T23:29:54.121Z,14.56
2022-10-28T23:32:22.150Z,14.49
2022-10-28T23:34:51.407Z,14.46
2022-10-28T23:37:19.323Z,14.41
2022-10-28T23:39:47.301Z,14.35
2022-10-28T23:42:15.335Z,14.34
2022-10-28T23:44:43.280Z,14.31
2022-10-28T23:47:11.219Z,14.27
2022-10-28T23:49:39.188Z,14.22
2022-10-28T23:52:08.684Z,14.17
2022-10-28T23:54:37.090Z,14.18
2022-10-28T23:57:05.125Z,14.15
2022-10-28T23:59:33.130Z,14.14
